createdAt,value
2019-05-22T00:00:52.956Z,12.368164
2019-05-22T00:01:53.021Z,12.368164
2019-05-22T00:02:53.142Z,12.358093
2019-05-22T00:03:53.223Z,12.368164
2019-05-22T00:04:53.284Z,12.388306
2019-05-22T00:05:53.349Z,12.388306
2019-05-22T00:06:53.402Z,12.388306
2019-05-22T00:07:53.509Z,12.388306
2019-05-22T00:08:53.587Z,12.398376
2019-05-22T00:09:53.652Z,12.398376
2019-05-22T00:10:53.713Z,12.398376
2019-05-22T00:11:53.781Z,12.428589
2019-05-22T00:12:53.893Z,12.428589
2019-05-22T00:13:53.991Z,12.428589
2019-05-22T00:14:54.055Z,12.428589
2019-05-22T00:15:54.145Z,12.428589
2019-05-22T00:16:54.204Z,12.44873
2019-05-22T00:17:54.303Z,12.44873
2019-05-22T00:18:54.375Z,12.468872
2019-05-22T00:19:54.464Z,12.44873
2019-05-22T00:20:54.524Z,12.468872
2019-05-22T00:21:54.599Z,12.499084
2019-05-22T00:22:54.686Z,12.478943
2019-05-22T00:23:54.766Z,12.478943
2019-05-22T00:24:54.838Z,12.478943
2019-05-22T00:25:54.930Z,12.499084
2019-05-22T00:26:55.083Z,12.499084
2019-05-22T00:27:55.174Z,12.509155
2019-05-22T00:28:55.285Z,12.509155
2019-05-22T00:29:55.364Z,12.529297
2019-05-22T00:30:55.473Z,12.529297
2019-05-22T00:31:55.545Z,12.529297
2019-05-22T00:32:55.653Z,12.529297
2019-05-22T00:33:55.709Z,12.539368
2019-05-22T00:34:55.777Z,12.529297
2019-05-22T00:35:55.825Z,12.529297
2019-05-22T00:36:55.874Z,12.529297
2019-05-22T00:37:55.959Z,12.529297
2019-05-22T00:38:55.947Z,12.539368
2019-05-22T00:39:56.009Z,12.539368
2019-05-22T00:40:56.073Z,12.539368
2019-05-22T00:41:56.128Z,12.539368
2019-05-22T00:43:03.966Z,12.539368
2019-05-22T00:43:57.245Z,12.549438
2019-05-22T00:44:56.331Z,12.539368
2019-05-22T00:45:56.392Z,12.549438
2019-05-22T00:46:56.468Z,12.539368
2019-05-22T00:47:56.565Z,12.539368
2019-05-22T00:48:56.705Z,12.529297
2019-05-22T00:49:56.766Z,12.549438
2019-05-22T00:50:56.834Z,12.539368
2019-05-22T00:51:56.966Z,12.549438
2019-05-22T00:52:57.046Z,12.539368
2019-05-22T00:53:57.151Z,12.529297
2019-05-22T00:54:57.224Z,12.529297
2019-05-22T00:55:57.287Z,12.509155
2019-05-22T00:56:57.378Z,12.509155
2019-05-22T00:57:57.422Z,12.499084
2019-05-22T00:58:57.562Z,12.499084
2019-05-22T00:59:57.633Z,12.478943
2019-05-22T01:00:57.726Z,12.468872
2019-05-22T01:01:57.822Z,12.44873
2019-05-22T01:02:57.919Z,12.43866
2019-05-22T01:03:57.987Z,12.43866
2019-05-22T01:04:58.033Z,12.398376
2019-05-22T01:05:58.090Z,12.428589
2019-05-22T01:06:58.122Z,12.398376
2019-05-22T01:07:58.179Z,12.398376
2019-05-22T01:08:58.285Z,12.388306
2019-05-22T01:09:58.341Z,12.368164
2019-05-22T01:10:58.416Z,12.368164
2019-05-22T01:11:58.470Z,12.358093
2019-05-22T01:12:58.566Z,12.358093
2019-05-22T01:13:58.667Z,12.368164
2019-05-22T01:14:58.755Z,12.368164
2019-05-22T01:15:58.838Z,12.388306
2019-05-22T01:16:58.899Z,12.368164
2019-05-22T01:17:58.970Z,12.368164
2019-05-22T01:18:59.061Z,12.368164
2019-05-22T01:19:59.161Z,12.398376
2019-05-22T01:20:59.236Z,12.388306
2019-05-22T01:21:59.310Z,12.398376
2019-05-22T01:22:59.374Z,12.388306
2019-05-22T01:23:59.443Z,12.398376
2019-05-22T01:24:59.559Z,12.398376
2019-05-22T01:25:59.630Z,12.428589
2019-05-22T01:26:59.696Z,12.43866
2019-05-22T01:27:59.749Z,12.43866
2019-05-22T01:28:59.815Z,12.43866
2019-05-22T01:29:59.917Z,12.43866
2019-05-22T01:30:59.966Z,12.44873
2019-05-22T01:32:00.021Z,12.43866
2019-05-22T01:33:00.109Z,12.43866
2019-05-22T01:34:00.180Z,12.428589
2019-05-22T01:35:00.267Z,12.398376
2019-05-22T01:36:00.351Z,12.428589
2019-05-22T01:37:00.402Z,12.368164
2019-05-22T01:38:00.474Z,12.358093
2019-05-22T01:39:00.541Z,12.348022
2019-05-22T01:40:00.625Z,12.327881
2019-05-22T01:41:00.679Z,12.327881
2019-05-22T01:42:00.758Z,12.327881
2019-05-22T01:43:00.850Z,12.31781
2019-05-22T01:44:00.907Z,12.287598
2019-05-22T01:45:06.339Z,12.297668
2019-05-22T01:46:01.074Z,12.277527
2019-05-22T01:47:01.193Z,12.247314
2019-05-22T01:48:01.273Z,12.257385
2019-05-22T01:49:01.334Z,12.227173
2019-05-22T01:50:01.427Z,12.207031
2019-05-22T01:51:01.542Z,12.207031
2019-05-22T01:52:01.587Z,12.19696
2019-05-22T01:53:01.644Z,12.176819
2019-05-22T01:54:01.718Z,12.176819
2019-05-22T01:55:01.812Z,12.176819
2019-05-22T01:56:01.868Z,12.176819
2019-05-22T01:57:01.937Z,12.176819
2019-05-22T01:58:01.993Z,12.166748
2019-05-22T01:59:02.044Z,12.136536
2019-05-22T02:00:02.143Z,12.116394
2019-05-22T02:01:02.241Z,12.076111
2019-05-22T02:02:02.368Z,12.06604
2019-05-22T02:03:02.354Z,12.025757
2019-05-22T02:04:02.417Z,12.025757
2019-05-22T02:05:02.494Z,12.045898
2019-05-22T02:06:02.585Z,12.045898
2019-05-22T02:07:02.641Z,12.045898
2019-05-22T02:08:02.703Z,12.045898
2019-05-22T02:09:02.763Z,12.025757
2019-05-22T02:10:03.065Z,12.045898
2019-05-22T02:11:02.903Z,12.025757
2019-05-22T02:12:02.964Z,12.025757
2019-05-22T02:13:03.045Z,12.015686
2019-05-22T02:14:03.094Z,12.025757
2019-05-22T02:15:03.158Z,11.995544
2019-05-22T02:16:03.280Z,12.015686
2019-05-22T02:17:03.364Z,11.985474
2019-05-22T02:18:03.426Z,11.995544
2019-05-22T02:19:03.480Z,12.015686
2019-05-22T02:20:03.899Z,11.995544
2019-05-22T02:21:03.604Z,11.965332
2019-05-22T02:22:04.653Z,11.965332
2019-05-22T02:23:03.718Z,11.985474
2019-05-22T02:24:03.785Z,11.985474
2019-05-22T02:25:03.844Z,11.985474
2019-05-22T02:26:03.942Z,11.94519
2019-05-22T02:27:04.008Z,11.94519
2019-05-22T02:28:04.079Z,11.925049
2019-05-22T02:29:04.128Z,11.925049
2019-05-22T02:30:04.202Z,11.925049
2019-05-22T02:31:04.295Z,11.914978
2019-05-22T02:32:04.373Z,11.914978
2019-05-22T02:33:04.423Z,11.925049
2019-05-22T02:34:04.492Z,11.914978
2019-05-22T02:35:04.549Z,11.925049
2019-05-22T02:36:04.657Z,11.894836
2019-05-22T02:37:04.705Z,11.884766
2019-05-22T02:38:04.772Z,11.884766
2019-05-22T02:39:04.824Z,11.914978
2019-05-22T02:40:04.901Z,11.884766
2019-05-22T02:41:04.987Z,11.884766
2019-05-22T02:42:05.032Z,11.864624
2019-05-22T02:43:05.090Z,11.884766
2019-05-22T02:44:05.171Z,11.894836
2019-05-22T02:45:05.232Z,11.894836
2019-05-22T02:46:05.285Z,11.894836
2019-05-22T02:47:17.594Z,11.914978
2019-05-22T02:48:06.391Z,11.884766
2019-05-22T02:49:05.372Z,11.894836
2019-05-22T02:50:05.435Z,11.884766
2019-05-22T02:51:05.490Z,11.884766
2019-05-22T02:52:05.619Z,11.864624
2019-05-22T02:53:05.666Z,11.854553
2019-05-22T02:54:05.724Z,11.864624
2019-05-22T02:55:05.793Z,11.884766
2019-05-22T02:56:05.858Z,11.884766
2019-05-22T02:57:05.947Z,11.884766
2019-05-22T02:58:06.016Z,11.864624
2019-05-22T02:59:06.071Z,11.864624
2019-05-22T03:00:06.154Z,11.864624
2019-05-22T03:01:06.212Z,11.854553
2019-05-22T03:02:06.328Z,11.864624
2019-05-22T03:03:06.383Z,11.854553
2019-05-22T03:04:06.465Z,11.864624
2019-05-22T03:05:06.533Z,11.864624
2019-05-22T03:06:06.597Z,11.854553
2019-05-22T03:07:06.678Z,11.854553
2019-05-22T03:08:06.758Z,11.834412
2019-05-22T03:09:06.830Z,11.834412
2019-05-22T03:10:06.896Z,11.864624
2019-05-22T03:11:06.969Z,11.854553
2019-05-22T03:12:07.037Z,11.854553
2019-05-22T03:13:07.120Z,11.834412
2019-05-22T03:14:07.173Z,11.834412
2019-05-22T03:15:07.226Z,11.834412
2019-05-22T03:16:07.268Z,11.834412
2019-05-22T03:17:07.361Z,11.834412
2019-05-22T03:18:07.446Z,11.834412
2019-05-22T03:19:09.140Z,11.81427
2019-05-22T03:20:07.626Z,11.804199
2019-05-22T03:21:07.692Z,11.784058
2019-05-22T03:22:07.793Z,11.743774
2019-05-22T03:23:07.905Z,11.743774
2019-05-22T03:24:07.952Z,11.763916
2019-05-22T03:25:08.007Z,11.743774
2019-05-22T03:26:08.060Z,11.743774
2019-05-22T03:27:08.145Z,11.743774
2019-05-22T03:28:08.198Z,11.743774
2019-05-22T03:29:08.256Z,11.743774
2019-05-22T03:30:08.319Z,11.713562
2019-05-22T03:31:08.385Z,11.733704
2019-05-22T03:32:08.472Z,11.733704
2019-05-22T03:33:08.599Z,11.713562
2019-05-22T03:34:08.622Z,11.713562
2019-05-22T03:35:08.692Z,11.713562
2019-05-22T03:36:08.755Z,11.703491
2019-05-22T03:37:08.805Z,11.68335
2019-05-22T03:38:08.907Z,11.68335
2019-05-22T03:39:08.965Z,11.68335
2019-05-22T03:40:09.042Z,11.673279
2019-05-22T03:41:09.121Z,11.622925
2019-05-22T03:42:09.207Z,11.622925
2019-05-22T03:43:09.337Z,11.602783
2019-05-22T03:44:09.475Z,11.592712
2019-05-22T03:45:09.541Z,11.552429
2019-05-22T03:46:09.593Z,11.532288
2019-05-22T03:47:09.672Z,11.481934
2019-05-22T03:48:09.752Z,11.44165
2019-05-22T03:49:27.870Z,11.43158
2019-05-22T03:50:10.849Z,11.43158
2019-05-22T03:51:09.905Z,11.411438
2019-05-22T03:52:09.980Z,11.401367
2019-05-22T03:53:11.093Z,11.401367
2019-05-22T03:54:10.152Z,11.43158
2019-05-22T03:55:10.198Z,11.411438
2019-05-22T03:56:10.342Z,11.381226
2019-05-22T03:57:10.390Z,11.371155
2019-05-22T03:58:10.495Z,11.371155
2019-05-22T03:59:10.572Z,11.371155
2019-05-22T04:00:10.712Z,11.351013
2019-05-22T04:01:10.826Z,11.330872
2019-05-22T04:02:10.904Z,11.330872
2019-05-22T04:03:10.944Z,11.300659
2019-05-22T04:04:10.934Z,11.250305
2019-05-22T04:05:11.071Z,11.230164
2019-05-22T04:06:11.167Z,11.230164
2019-05-22T04:07:11.257Z,11.230164
2019-05-22T04:08:11.499Z,11.220093
2019-05-22T04:09:11.480Z,11.199951
2019-05-22T04:10:11.509Z,11.199951
2019-05-22T04:11:11.526Z,11.199951
2019-05-22T04:12:11.537Z,11.199951
2019-05-22T04:13:11.684Z,11.220093
2019-05-22T04:14:11.982Z,11.220093
2019-05-22T04:15:11.854Z,11.230164
2019-05-22T04:16:11.828Z,11.230164
2019-05-22T04:17:11.835Z,11.230164
2019-05-22T04:18:11.881Z,11.220093
2019-05-22T04:19:11.952Z,11.220093
2019-05-22T04:20:12.000Z,11.18988
2019-05-22T04:21:12.115Z,11.17981
2019-05-22T04:22:12.151Z,11.159668
2019-05-22T04:23:13.138Z,11.159668
2019-05-22T04:24:12.325Z,11.159668
2019-05-22T04:25:12.212Z,11.149597
2019-05-22T04:26:12.211Z,11.129456
2019-05-22T04:27:12.324Z,11.119385
2019-05-22T04:28:12.382Z,11.119385
2019-05-22T04:29:12.525Z,11.079102
2019-05-22T04:30:12.551Z,11.079102
2019-05-22T04:31:12.617Z,11.069031
2019-05-22T04:32:12.871Z,11.079102
2019-05-22T04:33:12.739Z,11.099243
2019-05-22T04:34:12.824Z,11.079102
2019-05-22T04:35:12.947Z,11.079102
2019-05-22T04:36:12.860Z,11.079102
2019-05-22T04:37:13.025Z,11.079102
2019-05-22T04:38:13.088Z,11.079102
2019-05-22T04:39:13.093Z,11.069031
2019-05-22T04:40:13.245Z,11.048889
2019-05-22T04:41:13.202Z,11.018677
2019-05-22T04:42:13.206Z,11.038818
2019-05-22T04:43:13.207Z,10.978394
2019-05-22T04:44:13.227Z,10.968323
2019-05-22T04:45:13.239Z,10.998535
2019-05-22T04:46:14.329Z,10.978394
2019-05-22T04:47:13.364Z,10.968323
2019-05-22T04:48:13.375Z,10.93811
2019-05-22T04:49:13.374Z,10.93811
2019-05-22T04:50:13.418Z,10.917969
2019-05-22T04:51:14.433Z,10.897827
2019-05-22T04:52:13.432Z,10.897827
2019-05-22T04:53:13.469Z,10.897827
2019-05-22T04:54:13.483Z,10.867615
2019-05-22T04:55:13.519Z,10.867615
2019-05-22T04:56:13.527Z,10.827332
2019-05-22T04:57:13.518Z,10.827332
2019-05-22T04:58:13.582Z,10.827332
2019-05-22T04:59:13.579Z,10.817261
2019-05-22T05:00:13.604Z,10.827332
2019-05-22T05:01:13.660Z,10.837402
2019-05-22T05:02:13.679Z,10.837402
2019-05-22T05:03:13.742Z,10.857544
2019-05-22T05:04:13.822Z,10.837402
2019-05-22T05:05:13.848Z,10.837402
2019-05-22T05:06:14.006Z,10.817261
2019-05-22T05:07:14.101Z,10.837402
2019-05-22T05:08:14.156Z,10.837402
2019-05-22T05:09:14.178Z,10.766907
2019-05-22T05:10:14.297Z,10.787048
2019-05-22T05:11:14.369Z,10.787048
2019-05-22T05:12:14.406Z,10.706482
2019-05-22T05:13:14.481Z,10.716553
2019-05-22T05:14:14.499Z,10.716553
2019-05-22T05:15:14.489Z,10.716553
2019-05-22T05:16:14.524Z,10.756836
2019-05-22T05:17:14.568Z,10.766907
2019-05-22T05:18:14.646Z,10.797119
2019-05-22T05:19:14.701Z,10.766907
2019-05-22T05:20:22.309Z,10.766907
2019-05-22T05:21:14.799Z,10.766907
2019-05-22T05:22:14.855Z,10.746765
2019-05-22T05:23:14.917Z,10.756836
2019-05-22T05:24:14.973Z,10.746765
2019-05-22T05:25:14.956Z,10.746765
2019-05-22T05:26:15.001Z,10.766907
2019-05-22T05:27:14.991Z,10.766907
2019-05-22T05:28:14.992Z,10.787048
2019-05-22T05:29:14.991Z,10.797119
2019-05-22T05:30:15.032Z,10.817261
2019-05-22T05:31:15.044Z,10.787048
2019-05-22T05:32:15.169Z,10.787048
2019-05-22T05:33:15.242Z,10.797119
2019-05-22T05:34:15.362Z,10.817261
2019-05-22T05:35:15.508Z,10.797119
2019-05-22T05:36:15.571Z,10.817261
2019-05-22T05:37:15.686Z,10.797119
2019-05-22T05:38:15.785Z,10.817261
2019-05-22T05:39:15.855Z,10.817261
2019-05-22T05:40:15.921Z,10.837402
2019-05-22T05:41:15.981Z,10.857544
2019-05-22T05:42:16.044Z,10.887756
2019-05-22T05:43:16.063Z,10.897827
2019-05-22T05:44:16.091Z,10.93811
2019-05-22T05:45:16.126Z,10.917969
2019-05-22T05:46:16.321Z,10.93811
2019-05-22T05:47:16.261Z,10.93811
2019-05-22T05:48:16.286Z,10.978394
2019-05-22T05:49:16.404Z,11.008606
2019-05-22T05:50:16.481Z,10.978394
2019-05-22T05:51:17.591Z,11.008606
2019-05-22T05:52:16.602Z,11.048889
2019-05-22T05:53:16.601Z,11.038818
2019-05-22T05:54:16.678Z,11.069031
2019-05-22T05:55:17.791Z,11.069031
2019-05-22T05:56:16.956Z,11.069031
2019-05-22T05:57:17.065Z,11.079102
2019-05-22T05:58:17.187Z,11.119385
2019-05-22T05:59:17.223Z,11.149597
2019-05-22T06:00:17.265Z,11.17981
2019-05-22T06:01:17.411Z,11.18988
2019-05-22T06:02:17.533Z,11.220093
2019-05-22T06:03:17.666Z,11.220093
2019-05-22T06:04:17.782Z,11.260376
2019-05-22T06:05:18.780Z,11.300659
2019-05-22T06:06:17.944Z,11.340942
2019-05-22T06:07:17.998Z,11.330872
2019-05-22T06:08:18.164Z,11.31073
2019-05-22T06:09:18.183Z,11.340942
2019-05-22T06:10:18.226Z,11.371155
2019-05-22T06:11:18.262Z,11.371155
2019-05-22T06:12:18.296Z,11.371155
2019-05-22T06:13:18.330Z,11.371155
2019-05-22T06:14:18.387Z,11.401367
2019-05-22T06:15:18.548Z,11.44165
2019-05-22T06:16:19.628Z,11.451721
2019-05-22T06:17:18.645Z,11.512146
2019-05-22T06:18:18.638Z,11.492004
2019-05-22T06:19:18.716Z,11.481934
2019-05-22T06:20:18.770Z,11.532288
2019-05-22T06:21:18.803Z,11.552429
2019-05-22T06:22:18.832Z,11.582642
2019-05-22T06:23:18.810Z,11.582642
2019-05-22T06:24:18.873Z,11.522217
2019-05-22T06:25:18.989Z,11.532288
2019-05-22T06:26:19.064Z,11.552429
2019-05-22T06:27:19.240Z,11.592712
2019-05-22T06:28:19.301Z,11.622925
2019-05-22T06:29:19.334Z,11.673279
2019-05-22T06:30:19.451Z,11.703491
2019-05-22T06:31:19.485Z,11.763916
2019-05-22T06:32:19.583Z,11.834412
2019-05-22T06:33:19.711Z,11.864624
2019-05-22T06:34:19.818Z,11.914978
2019-05-22T06:35:19.845Z,11.94519
2019-05-22T06:36:19.962Z,11.914978
2019-05-22T06:37:20.085Z,11.884766
2019-05-22T06:38:20.128Z,11.914978
2019-05-22T06:39:20.238Z,11.955261
2019-05-22T06:40:20.208Z,12.025757
2019-05-22T06:41:20.269Z,12.076111
2019-05-22T06:42:20.279Z,11.965332
2019-05-22T06:43:20.288Z,11.965332
2019-05-22T06:44:20.355Z,11.985474
2019-05-22T06:45:20.392Z,12.025757
2019-05-22T06:46:21.410Z,12.076111
2019-05-22T06:47:20.412Z,12.096252
2019-05-22T06:48:20.431Z,12.045898
2019-05-22T06:49:20.475Z,12.015686
2019-05-22T06:50:20.588Z,12.015686
2019-05-22T06:51:20.592Z,12.015686
2019-05-22T06:52:20.643Z,12.045898
2019-05-22T06:53:20.638Z,12.025757
2019-05-22T06:54:20.658Z,12.096252
2019-05-22T06:55:20.718Z,11.995544
2019-05-22T06:56:23.671Z,11.965332
2019-05-22T06:57:20.875Z,11.965332
2019-05-22T06:58:20.811Z,11.955261
2019-05-22T06:59:20.851Z,11.965332
2019-05-22T07:00:20.930Z,11.914978
2019-05-22T07:01:20.988Z,11.894836
2019-05-22T07:02:20.978Z,11.94519
2019-05-22T07:03:22.133Z,11.94519
2019-05-22T07:04:21.243Z,11.94519
2019-05-22T07:05:21.276Z,11.94519
2019-05-22T07:06:21.347Z,11.894836
2019-05-22T07:07:21.352Z,11.884766
2019-05-22T07:08:21.365Z,11.894836
2019-05-22T07:09:21.415Z,11.925049
2019-05-22T07:10:21.454Z,11.925049
2019-05-22T07:11:21.458Z,11.94519
2019-05-22T07:12:21.464Z,11.925049
2019-05-22T07:13:21.461Z,11.94519
2019-05-22T07:14:21.490Z,11.914978
2019-05-22T07:15:21.516Z,11.925049
2019-05-22T07:16:21.519Z,11.955261
2019-05-22T07:17:21.546Z,11.985474
2019-05-22T07:18:21.651Z,12.015686
2019-05-22T07:19:21.736Z,11.965332
2019-05-22T07:20:21.816Z,11.965332
2019-05-22T07:21:33.267Z,11.965332
2019-05-22T07:22:22.087Z,12.015686
2019-05-22T07:23:22.093Z,12.025757
2019-05-22T07:24:22.129Z,12.06604
2019-05-22T07:25:22.136Z,12.06604
2019-05-22T07:26:22.290Z,12.096252
2019-05-22T07:27:22.307Z,12.106323
2019-05-22T07:28:22.311Z,12.136536
2019-05-22T07:29:22.347Z,12.136536
2019-05-22T07:30:22.366Z,12.176819
2019-05-22T07:31:22.423Z,12.19696
2019-05-22T07:32:22.419Z,12.166748
2019-05-22T07:33:22.451Z,12.146606
2019-05-22T07:34:22.449Z,12.106323
2019-05-22T07:35:22.452Z,12.096252
2019-05-22T07:36:23.543Z,12.076111
2019-05-22T07:37:22.530Z,12.045898
2019-05-22T07:38:22.645Z,11.985474
2019-05-22T07:39:22.699Z,11.995544
2019-05-22T07:40:22.771Z,11.965332
2019-05-22T07:41:22.836Z,11.965332
2019-05-22T07:42:22.839Z,11.955261
2019-05-22T07:43:23.009Z,11.965332
2019-05-22T07:44:22.880Z,11.985474
2019-05-22T07:45:22.901Z,11.995544
2019-05-22T07:46:22.953Z,12.025757
2019-05-22T07:47:23.051Z,12.015686
2019-05-22T07:48:23.119Z,12.045898
2019-05-22T07:49:23.183Z,12.045898
2019-05-22T07:50:23.268Z,12.025757
2019-05-22T07:51:23.385Z,12.045898
2019-05-22T07:52:24.340Z,12.045898
2019-05-22T07:53:23.371Z,12.076111
2019-05-22T07:54:23.386Z,12.096252
2019-05-22T07:55:23.473Z,12.116394
2019-05-22T07:56:23.561Z,12.136536
2019-05-22T07:57:23.535Z,12.136536
2019-05-22T07:58:23.634Z,12.06604
2019-05-22T07:59:23.734Z,12.045898
2019-05-22T08:00:23.780Z,12.06604
2019-05-22T08:01:23.915Z,12.045898
2019-05-22T08:02:24.004Z,12.045898
2019-05-22T08:03:24.075Z,12.025757
2019-05-22T08:04:24.082Z,12.025757
2019-05-22T08:05:24.200Z,12.045898
2019-05-22T08:06:24.271Z,12.025757
2019-05-22T08:07:24.413Z,12.045898
2019-05-22T08:08:24.433Z,12.06604
2019-05-22T08:09:24.483Z,12.045898
2019-05-22T08:10:24.609Z,12.076111
2019-05-22T08:11:24.587Z,12.096252
2019-05-22T08:12:24.695Z,12.096252
2019-05-22T08:13:24.768Z,12.106323
2019-05-22T08:14:24.870Z,12.096252
2019-05-22T08:15:24.935Z,12.096252
2019-05-22T08:16:25.086Z,12.136536
2019-05-22T08:17:25.066Z,12.19696
2019-05-22T08:18:25.112Z,12.227173
2019-05-22T08:19:25.103Z,12.257385
2019-05-22T08:20:25.097Z,12.277527
2019-05-22T08:21:25.330Z,12.247314
2019-05-22T08:22:25.331Z,12.247314
2019-05-22T08:23:25.414Z,12.19696
2019-05-22T08:24:25.418Z,12.19696
2019-05-22T08:25:25.460Z,12.19696
2019-05-22T08:26:25.463Z,12.227173
2019-05-22T08:27:26.605Z,12.277527
2019-05-22T08:28:25.648Z,12.327881
2019-05-22T08:29:25.639Z,12.398376
2019-05-22T08:30:25.641Z,12.44873
2019-05-22T08:31:25.650Z,12.499084
2019-05-22T08:32:25.793Z,12.539368
2019-05-22T08:33:25.764Z,12.579651
2019-05-22T08:34:25.757Z,12.619934
2019-05-22T08:35:25.758Z,12.69043
2019-05-22T08:36:25.765Z,12.69043
2019-05-22T08:37:25.844Z,12.660217
2019-05-22T08:38:25.893Z,12.619934
2019-05-22T08:39:25.893Z,12.619934
2019-05-22T08:40:25.940Z,12.619934
2019-05-22T08:41:25.955Z,12.630005
2019-05-22T08:42:25.991Z,12.609863
2019-05-22T08:43:26.000Z,12.630005
2019-05-22T08:44:27.033Z,12.650146
2019-05-22T08:45:26.046Z,12.650146
2019-05-22T08:46:26.067Z,12.619934
2019-05-22T08:47:26.165Z,12.619934
2019-05-22T08:48:26.254Z,12.630005
2019-05-22T08:49:26.288Z,12.680359
2019-05-22T08:50:26.356Z,12.720642
2019-05-22T08:51:26.440Z,12.750854
2019-05-22T08:52:26.485Z,12.7005
2019-05-22T08:53:26.606Z,12.680359
2019-05-22T08:54:27.634Z,12.720642
2019-05-22T08:55:26.624Z,12.801208
2019-05-22T08:56:26.776Z,12.831421
2019-05-22T08:57:26.796Z,12.881775
2019-05-22T08:58:26.933Z,12.932129
2019-05-22T08:59:27.064Z,12.992554
2019-05-22T09:00:27.126Z,13.022766
2019-05-22T09:01:27.162Z,13.063049
2019-05-22T09:02:27.278Z,13.083191
2019-05-22T09:03:27.330Z,13.113403
2019-05-22T09:04:27.359Z,13.063049
2019-05-22T09:05:27.439Z,13.093262
2019-05-22T09:06:27.591Z,13.133545
2019-05-22T09:07:27.614Z,13.214111
2019-05-22T09:08:27.747Z,13.264465
2019-05-22T09:09:27.916Z,13.284607
2019-05-22T09:10:27.807Z,13.355103
2019-05-22T09:11:27.840Z,13.425598
2019-05-22T09:12:27.834Z,13.486023
2019-05-22T09:13:27.865Z,13.566589
2019-05-22T09:14:27.906Z,13.546448
2019-05-22T09:15:27.949Z,13.566589
2019-05-22T09:16:27.941Z,13.516235
2019-05-22T09:17:27.940Z,13.44574
2019-05-22T09:18:27.941Z,13.425598
2019-05-22T09:19:28.000Z,13.425598
2019-05-22T09:20:28.064Z,13.425598
2019-05-22T09:21:29.048Z,13.415527
2019-05-22T09:22:39.846Z,13.455811
2019-05-22T09:23:29.172Z,13.486023
2019-05-22T09:24:28.327Z,13.57666
2019-05-22T09:25:28.290Z,13.616943
2019-05-22T09:26:28.297Z,13.667297
2019-05-22T09:27:28.313Z,13.677368
2019-05-22T09:28:28.353Z,13.677368
2019-05-22T09:29:28.353Z,13.667297
2019-05-22T09:30:28.390Z,13.677368
2019-05-22T09:31:28.407Z,13.667297
2019-05-22T09:32:28.415Z,13.677368
2019-05-22T09:33:28.488Z,13.727722
2019-05-22T09:34:28.539Z,13.778076
2019-05-22T09:35:28.560Z,13.798218
2019-05-22T09:36:28.605Z,13.798218
2019-05-22T09:37:28.664Z,13.798218
2019-05-22T09:38:28.722Z,13.798218
2019-05-22T09:39:28.754Z,13.818359
2019-05-22T09:40:28.829Z,13.858643
2019-05-22T09:41:28.799Z,13.848572
2019-05-22T09:42:28.922Z,13.82843
2019-05-22T09:43:29.028Z,13.818359
2019-05-22T09:44:29.058Z,13.82843
2019-05-22T09:45:29.195Z,13.82843
2019-05-22T09:46:29.264Z,13.82843
2019-05-22T09:47:29.256Z,13.908997
2019-05-22T09:48:29.295Z,13.969421
2019-05-22T09:49:29.308Z,14.049988
2019-05-22T09:50:29.345Z,14.160767
2019-05-22T09:51:29.372Z,14.251404
2019-05-22T09:52:29.391Z,14.372253
2019-05-22T09:53:30.435Z,14.483032
2019-05-22T09:54:29.599Z,14.483032
2019-05-22T09:55:29.615Z,14.261475
2019-05-22T09:56:30.692Z,14.261475
2019-05-22T09:57:29.668Z,14.20105
2019-05-22T09:58:29.678Z,14.190979
2019-05-22T09:59:29.684Z,14.20105
2019-05-22T10:00:29.690Z,14.231262
2019-05-22T10:01:29.820Z,14.362183
2019-05-22T10:02:29.857Z,14.442749
2019-05-22T10:03:30.148Z,14.523315
2019-05-22T10:04:30.005Z,14.624023
2019-05-22T10:05:30.148Z,14.744873
2019-05-22T10:06:30.221Z,14.815369
2019-05-22T10:07:30.270Z,14.986572
2019-05-22T10:08:31.317Z,15.167847
2019-05-22T10:09:30.489Z,15.258484
2019-05-22T10:10:30.531Z,15.147705
2019-05-22T10:11:30.647Z,15.097351
2019-05-22T10:12:30.759Z,15.046997
2019-05-22T10:13:30.866Z,15.046997
2019-05-22T10:14:30.888Z,14.986572
2019-05-22T10:15:31.221Z,14.95636
2019-05-22T10:16:31.109Z,14.996643
2019-05-22T10:17:31.189Z,15.046997
2019-05-22T10:18:31.233Z,15.097351
2019-05-22T10:19:31.353Z,15.268555
2019-05-22T10:20:31.380Z,15.298767
2019-05-22T10:21:31.464Z,15.510254
2019-05-22T10:22:31.572Z,15.84259
2019-05-22T10:23:31.615Z,16.315918
2019-05-22T10:24:31.634Z,16.910095
2019-05-22T10:25:31.742Z,17.041016
2019-05-22T10:26:31.829Z,17.272644
2019-05-22T10:27:31.810Z,17.192078
2019-05-22T10:28:31.967Z,16.8396
2019-05-22T10:29:32.458Z,16.618042
2019-05-22T10:30:32.085Z,16.658325
2019-05-22T10:31:32.242Z,16.618042
2019-05-22T10:32:32.637Z,16.547546
2019-05-22T10:33:32.517Z,16.547546
2019-05-22T10:34:32.548Z,16.638184
2019-05-22T10:35:32.627Z,16.71875
2019-05-22T10:36:32.684Z,16.920166
2019-05-22T10:37:32.757Z,17.282715
2019-05-22T10:38:32.859Z,17.302856
2019-05-22T10:39:32.938Z,17.302856
2019-05-22T10:40:33.008Z,17.836609
2019-05-22T10:41:33.103Z,18.632202
2019-05-22T10:42:33.199Z,19.045105
2019-05-22T10:43:33.252Z,19.48822
2019-05-22T10:44:33.270Z,20.152893
2019-05-22T10:45:33.326Z,20.273743
2019-05-22T10:46:33.446Z,19.891052
2019-05-22T10:47:33.474Z,19.619141
2019-05-22T10:48:33.572Z,19.407654
2019-05-22T10:49:33.676Z,19.317017
2019-05-22T10:50:33.747Z,18.894043
2019-05-22T10:51:33.752Z,18.702698
2019-05-22T10:52:33.754Z,18.742981
2019-05-22T10:53:34.440Z,19.528503
2019-05-22T10:54:33.866Z,20.183105
2019-05-22T10:55:33.876Z,20.74707
2019-05-22T10:56:33.916Z,20.898132
2019-05-22T10:57:33.972Z,21.129761
2019-05-22T10:58:34.138Z,20.767212
2019-05-22T10:59:34.242Z,20.545654
2019-05-22T11:00:34.331Z,20.021973
2019-05-22T11:01:37.338Z,19.568787
2019-05-22T11:02:34.419Z,19.23645
2019-05-22T11:03:34.559Z,19.528503
2019-05-22T11:04:34.669Z,19.558716
2019-05-22T11:05:34.758Z,19.337158
2019-05-22T11:06:35.844Z,19.115601
2019-05-22T11:07:34.860Z,18.551636
2019-05-22T11:08:34.933Z,18.370361
2019-05-22T11:09:34.900Z,18.259583
2019-05-22T11:10:35.013Z,18.924255
2019-05-22T11:11:35.040Z,19.377441
2019-05-22T11:12:35.040Z,19.750061
2019-05-22T11:13:35.081Z,20.042114
2019-05-22T11:14:36.049Z,20.515442
2019-05-22T11:15:35.113Z,20.797424
2019-05-22T11:16:35.133Z,21.401672
2019-05-22T11:17:35.143Z,21.804504
2019-05-22T11:18:35.175Z,22.37854
2019-05-22T11:19:35.240Z,22.459106
2019-05-22T11:20:35.250Z,22.217407
2019-05-22T11:21:35.258Z,21.723938
2019-05-22T11:22:35.266Z,21.381531
2019-05-22T11:23:50.309Z,21.008911
2019-05-22T11:24:36.328Z,20.475159
2019-05-22T11:25:35.471Z,20.122681
2019-05-22T11:26:35.466Z,19.750061
2019-05-22T11:27:35.474Z,20.24353